Riceboro, Georgia
Current Conditions -  °F | °C
As of 11:58 PM on Wednesday 22 Oct 2014 (Local Time) from KLHW Reporting Station
Clear Clear  
Wind Chill: 49°   Ceiling: Unl
Heat Index: 49°   Visibility: 10mi
Dew Point: 45°   Wind: 0mph
Humidity: 84%   Direction: NA
Pressure: 30.06"   Gusts: NA
Location:  31.74°N, 81.43°W
Report Text: KLHW 230358Z AUTO 00000KT 10SM CLR 10/07 A3006 RMK AO2 SLP182 T00960070
Loading
Personal Weather Stations






























Interactive Weather Map
Tropical Storm Tracking
New forecast layout! Learn more

10-Day Weather Forecast

Advertisements
Track Severe Weather on mobile